Time;durP1;ratioP1;P1;durP2;ratioP2;P2;SDS_P1;SDS_P2;PMS_P1;PMS_P2;Temp;Humidity;BMP_temperature;BMP_pressure;BME280_temperature;BME280_humidity;BME280_pressure;Samples;Min_cycle;Max_cycle;Signal;HPM_P1;HPM_P2
2021/05/05 00:01:55;;;;;;;4.53;3.30;;;9.90;99.90;;;;;;6184744;28;20052;-81
2021/05/05 00:04:55;;;;;;;3.38;2.47;;;9.90;99.90;;;;;;6185503;28;20037;-84
2021/05/05 00:07:56;;;;;;;3.17;2.88;;;9.60;99.90;;;;;;6185253;28;20030;-84
2021/05/05 00:10:57;;;;;;;3.47;2.53;;;9.60;99.90;;;;;;6185005;28;20042;-81
2021/05/05 00:13:58;;;;;;;4.05;2.90;;;10.00;99.90;;;;;;6167863;28;20172;-82
2021/05/05 00:16:58;;;;;;;3.38;2.72;;;9.70;99.90;;;;;;6184649;28;20025;-82
2021/05/05 00:19:59;;;;;;;4.78;3.10;;;9.60;99.90;;;;;;6184612;28;20034;-82
2021/05/05 00:23:00;;;;;;;2.67;2.47;;;;;;;;;;6168427;28;20391;-80
2021/05/05 00:26:00;;;;;;;3.00;2.70;;;9.50;99.90;;;;;;6184653;28;20076;-85
2021/05/05 00:29:01;;;;;;;3.67;3.05;;;9.90;99.90;;;;;;6168585;28;20061;-82
2021/05/05 00:32:02;;;;;;;3.10;2.80;;;9.60;99.90;;;;;;6168504;28;20568;-84
2021/05/05 00:35:03;;;;;;;3.70;3.03;;;9.50;99.90;;;;;;6200938;28;20030;-82
2021/05/05 00:38:05;;;;;;;4.25;2.78;;;9.50;99.90;;;;;;6168629;28;20034;-82
2021/05/05 00:41:09;;;;;;;5.45;3.28;;;9.60;99.90;;;;;;6185009;28;20041;-83
2021/05/05 00:44:10;;;;;;;4.15;2.88;;;9.60;99.90;;;;;;6184450;28;20025;-81
2021/05/05 00:47:10;;;;;;;3.20;2.40;;;9.60;99.90;;;;;;6168434;28;20076;-82
2021/05/05 00:50:13;;;;;;;6.05;3.08;;;9.60;99.90;;;;;;6168309;28;20049;-83
2021/05/05 00:53:14;;;;;;;2.60;2.40;;;9.90;99.90;;;;;;6184334;28;20041;-82
2021/05/05 00:56:14;;;;;;;3.50;2.47;;;9.60;99.90;;;;;;6200150;28;20033;-82
2021/05/05 00:59:15;;;;;;;3.28;2.20;;;9.50;99.90;;;;;;6167808;28;20112;-82
2021/05/05 01:02:16;;;;;;;3.20;2.40;;;9.50;99.90;;;;;;6168172;28;20364;-82
2021/05/05 01:05:17;;;;;;;2.65;1.90;;;10.20;99.90;;;;;;6185217;28;20030;-85
2021/05/05 01:08:20;;;;;;;4.03;2.17;;;9.50;99.90;;;;;;6168098;28;20034;-80
2021/05/05 01:11:20;;;;;;;2.30;1.55;;;9.50;99.90;;;;;;6170277;28;20049;-82
2021/05/05 01:14:22;;;;;;;2.13;1.40;;;;;;;;;;6172242;28;20084;-83
2021/05/05 01:17:22;;;;;;;1.25;1.08;;;9.40;99.90;;;;;;6188668;28;20063;-84
2021/05/05 01:20:27;;;;;;;1.75;0.88;;;9.30;99.90;;;;;;6188437;28;20068;-82
2021/05/05 01:23:27;;;;;;;0.70;0.70;;;9.30;99.90;;;;;;6188253;28;20112;-81
2021/05/05 01:26:28;;;;;;;1.02;0.80;;;9.20;99.90;;;;;;6172028;28;20029;-82
2021/05/05 01:29:29;;;;;;;0.50;0.50;;;9.00;99.90;;;;;;6188517;28;20030;-81
2021/05/05 01:32:30;;;;;;;1.42;0.90;;;10.30;99.90;;;;;;6171890;28;20041;-81
2021/05/05 01:35:30;;;;;;;0.57;0.57;;;8.70;99.90;;;;;;6171842;28;20033;-82
2021/05/05 01:38:31;;;;;;;1.10;1.00;;;8.90;99.90;;;;;;6187578;28;20472;-83
2021/05/05 01:41:33;;;;;;;3.13;1.20;;;8.80;99.90;;;;;;6171698;28;20045;-83
2021/05/05 01:44:35;;;;;;;0.73;0.73;;;9.00;99.90;;;;;;6188083;28;20045;-81
2021/05/05 01:47:36;;;;;;;0.77;0.77;;;8.90;99.90;;;;;;6187236;28;20468;-82
2021/05/05 01:50:37;;;;;;;1.27;1.00;;;8.30;99.90;;;;;;6187645;28;20132;-85
2021/05/05 01:53:37;;;;;;;1.70;1.00;;;8.10;99.90;;;;;;6187542;28;20037;-84
2021/05/05 01:56:38;;;;;;;1.83;0.98;;;8.00;99.90;;;;;;6170760;28;20435;-83
2021/05/05 01:59:38;;;;;;;2.35;1.02;;;8.20;99.90;;;;;;6171473;28;20076;-82
2021/05/05 02:02:39;;;;;;;2.03;1.17;;;8.10;99.90;;;;;;6187112;28;20440;-84
2021/05/05 02:05:40;;;;;;;1.10;0.70;;;8.00;99.90;;;;;;6187659;28;20036;-83
2021/05/05 02:08:40;;;;;;;0.88;0.88;;;7.80;99.90;;;;;;6171213;28;20449;-84
2021/05/05 02:11:41;;;;;;;0.68;0.68;;;7.80;99.90;;;;;;6171187;28;20049;-86
2021/05/05 02:14:42;;;;;;;1.30;0.93;;;7.70;99.90;;;;;;6171093;28;20034;-85
2021/05/05 02:17:43;;;;;;;1.75;1.25;;;7.50;99.90;;;;;;6187418;28;20436;-82
2021/05/05 02:20:43;;;;;;;1.92;1.23;;;7.40;99.90;;;;;;6187548;28;20045;-82
2021/05/05 02:23:44;;;;;;;0.95;0.95;;;7.50;99.90;;;;;;6169925;28;20400;-83
2021/05/05 02:26:45;;;;;;;1.45;1.10;;;7.50;99.90;;;;;;6170786;28;20052;-83
2021/05/05 02:29:45;;;;;;;0.95;0.90;;;7.60;99.90;;;;;;6187001;28;20058;-83
2021/05/05 02:32:46;;;;;;;1.48;1.10;;;7.50;99.90;;;;;;6170624;28;20496;-83
2021/05/05 02:35:47;;;;;;;1.58;0.90;;;;;;;;;;6186652;28;20026;-82
2021/05/05 02:38:48;;;;;;;2.25;1.10;;;;;;;;;;6186274;28;20495;-81
2021/05/05 02:41:49;;;;;;;1.95;1.48;;;;;;;;;;6186543;28;20032;-83
2021/05/05 02:44:50;;;;;;;3.08;1.23;;;;;;;;;;6202815;28;20033;-82
2021/05/05 02:47:51;;;;;;;1.17;0.80;;;;;;;;;;6202677;28;20372;-84
2021/05/05 02:50:52;;;;;;;0.85;0.85;;;;;;;;;;6202668;28;20045;-81
2021/05/05 02:53:53;;;;;;;3.35;1.35;;;;;;;;;;6202283;28;20026;-82
2021/05/05 02:56:54;;;;;;;2.13;2.00;;;;;;;;;;6202270;28;20049;-82
2021/05/05 02:59:57;;;;;;;5.57;1.90;;;7.50;99.90;;;;;;6186280;28;20034;-82
2021/05/05 03:02:58;;;;;;;2.40;1.45;;;;;;;;;;6186112;28;20107;-80
2021/05/05 03:05:59;;;;;;;1.60;1.10;;;;;;;;;;6202559;28;20034;-82
2021/05/05 03:09:00;;;;;;;2.42;1.40;;;;;;;;;;6186050;28;20372;-81
2021/05/05 03:12:00;;;;;;;3.47;1.83;;;7.40;99.90;;;;;;6185715;28;20069;-82
2021/05/05 03:15:01;;;;;;;1.92;1.80;;;7.40;99.90;;;;;;6169994;28;20033;-84
2021/05/05 03:18:01;;;;;;;2.22;1.73;;;7.60;99.90;;;;;;6185932;28;20480;-84
2021/05/05 03:21:02;;;;;;;3.25;1.65;;;7.40;99.90;;;;;;6170249;28;20042;-81
2021/05/05 03:24:03;;;;;;;4.05;1.48;;;7.40;99.90;;;;;;6185731;28;20057;-81
2021/05/05 03:27:04;;;;;;;2.67;1.30;;;7.40;99.90;;;;;;6185868;28;20034;-83
2021/05/05 03:30:05;;;;;;;1.63;1.42;;;7.40;99.90;;;;;;6169313;28;20380;-82
2021/05/05 03:33:06;;;;;;;3.67;1.65;;;7.40;99.90;;;;;;6169237;28;20068;-84
2021/05/05 03:36:06;;;;;;;1.60;1.50;;;7.40;99.90;;;;;;6184762;28;20445;-84
2021/05/05 03:39:07;;;;;;;2.38;1.38;;;7.40;99.90;;;;;;6185552;28;20780;-82
2021/05/05 03:42:08;;;;;;;2.67;1.55;;;7.40;99.90;;;;;;6169336;28;20034;-80
2021/05/05 03:45:09;;;;;;;2.13;1.42;;;7.40;99.90;;;;;;6169443;28;20034;-82
2021/05/05 03:48:10;;;;;;;4.57;1.50;;;7.40;99.90;;;;;;6185156;28;20060;-82
2021/05/05 03:51:11;;;;;;;2.05;1.88;;;7.70;99.90;;;;;;6168549;28;20445;-84
2021/05/05 03:54:11;;;;;;;1.30;1.20;;;8.40;99.90;;;;;;6169529;28;20030;-82
2021/05/05 03:57:12;;;;;;;1.48;1.38;;;7.40;99.90;;;;;;6169018;28;20116;-84
2021/05/05 04:00:13;;;;;;;2.15;1.20;;;7.30;99.90;;;;;;6169114;28;20555;-82
2021/05/05 04:03:14;;;;;;;1.60;1.45;;;7.30;99.90;;;;;;6200935;28;20077;-82
2021/05/05 04:06:14;;;;;;;6.05;1.75;;;7.30;99.90;;;;;;6169122;28;20432;-82
2021/05/05 04:09:15;;;;;;;1.60;1.50;;;7.30;99.90;;;;;;6168847;28;20025;-82
2021/05/05 04:12:16;;;;;;;1.75;1.50;;;7.30;99.90;;;;;;6169009;28;20134;-82
2021/05/05 04:15:17;;;;;;;1.65;1.55;;;7.20;99.90;;;;;;6169182;28;20022;-83
2021/05/05 04:18:18;;;;;;;1.52;1.38;;;7.40;99.90;;;;;;6184427;28;20196;-81
2021/05/05 04:21:18;;;;;;;2.00;1.67;;;7.30;99.90;;;;;;6168771;28;20034;-82
2021/05/05 04:24:19;;;;;;;2.03;1.50;;;7.30;99.90;;;;;;6167920;28;20044;-81
2021/05/05 04:27:20;;;;;;;1.80;1.70;;;7.20;99.90;;;;;;6168722;28;20037;-81
2021/05/05 04:30:21;;;;;;;3.03;2.20;;;7.10;99.90;;;;;;6184630;28;20116;-81
2021/05/05 04:33:21;;;;;;;2.38;1.75;;;7.10;99.90;;;;;;6168051;28;20030;-82
2021/05/05 04:36:22;;;;;;;2.35;1.60;;;7.10;99.90;;;;;;6184173;28;20396;-80
2021/05/05 04:39:23;;;;;;;1.77;1.35;;;7.10;99.90;;;;;;6168611;28;20065;-84
2021/05/05 04:42:23;;;;;;;1.90;1.55;;;7.10;99.90;;;;;;6184626;28;20033;-79
2021/05/05 04:45:24;;;;;;;1.90;1.13;;;7.00;99.90;;;;;;6168997;28;20026;-79
2021/05/05 04:48:25;;;;;;;6.32;5.22;;;7.10;99.90;;;;;;6188546;28;20058;-81
2021/05/05 04:51:25;;;;;;;2.97;2.67;;;7.10;99.90;;;;;;6205541;28;20073;-80
2021/05/05 04:54:26;;;;;;;2.22;1.42;;;7.50;99.90;;;;;;6188998;28;20033;-78
2021/05/05 04:57:26;;;;;;;1.85;1.25;;;7.10;99.90;;;;;;6189178;28;20040;-76
2021/05/05 05:00:27;;;;;;;1.30;1.15;;;7.10;99.90;;;;;;6172648;28;20599;-79
2021/05/05 05:03:28;;;;;;;3.42;2.40;;;7.10;99.90;;;;;;6205587;28;20038;-77
2021/05/05 05:06:28;;;;;;;2.67;2.40;;;7.00;99.90;;;;;;6204907;28;20392;-80
2021/05/05 05:09:29;;;;;;;2.00;1.90;;;7.10;99.90;;;;;;6205065;28;20029;-78
2021/05/05 05:12:29;;;;;;;2.03;1.63;;;7.10;99.90;;;;;;6188165;28;20365;-80
2021/05/05 05:15:30;;;;;;;1.30;1.20;;;7.20;99.90;;;;;;6172812;28;20034;-78
2021/05/05 05:18:31;;;;;;;2.28;1.52;;;;;;;;;;6204729;28;20069;-78
2021/05/05 05:21:32;;;;;;;3.35;1.80;;;7.10;99.90;;;;;;6195114;28;20076;-78
2021/05/05 05:24:32;;;;;;;1.52;1.42;;;7.30;99.90;;;;;;6220645;28;20481;-78
2021/05/05 05:27:33;;;;;;;2.30;1.70;;;7.30;99.90;;;;;;6204517;28;20117;-80
2021/05/05 05:30:34;;;;;;;2.53;2.08;;;7.20;99.90;;;;;;6171556;28;20045;-78
2021/05/05 05:33:34;;;;;;;1.08;0.98;;;7.30;99.90;;;;;;6188208;28;20124;-79
2021/05/05 05:36:35;;;;;;;1.38;0.75;;;;;;;;;;6188426;28;20026;-79
2021/05/05 05:39:36;;;;;;;1.10;1.10;;;7.50;99.90;;;;;;6204124;28;20028;-80
2021/05/05 05:42:36;;;;;;;1.23;1.00;;;7.50;99.90;;;;;;6187787;28;20160;-80
2021/05/05 05:45:37;;;;;;;2.67;1.15;;;7.40;99.90;;;;;;6221593;28;20056;-81
2021/05/05 05:48:38;;;;;;;7.05;2.17;;;7.40;99.90;;;;;;6203427;28;20050;-78
2021/05/05 05:51:38;;;;;;;10.35;2.50;;;7.60;99.90;;;;;;6203802;28;20044;-77
2021/05/05 05:54:39;;;;;;;1.35;0.90;;;8.40;99.90;;;;;;6201794;28;20025;-79
2021/05/05 05:57:40;;;;;;;1.70;1.10;;;8.40;99.90;;;;;;6186422;28;20032;-79
2021/05/05 06:00:40;;;;;;;1.60;1.50;;;8.20;99.90;;;;;;6203550;28;20527;-79
2021/05/05 06:03:41;;;;;;;3.63;1.88;;;7.60;99.90;;;;;;6187386;28;20468;-80
2021/05/05 06:06:41;;;;;;;2.17;1.45;;;7.60;99.90;;;;;;6187241;28;20499;-79
2021/05/05 06:09:42;;;;;;;1.58;1.48;;;7.50;99.90;;;;;;6204048;28;20762;-79
2021/05/05 06:12:43;;;;;;;2.08;1.52;;;7.50;99.90;;;;;;6187069;28;20050;-81
2021/05/05 06:15:44;;;;;;;3.13;1.90;;;7.40;99.90;;;;;;6187448;28;20377;-80
2021/05/05 06:19:05;;;;;;;2.67;2.35;;;6.40;99.90;;;;;;6187396;28;20030;-80
2021/05/05 06:22:06;;;;;;;2.45;1.63;;;7.50;99.90;;;;;;6194906;28;20464;-78
2021/05/05 06:25:07;;;;;;;3.15;2.00;;;7.60;99.90;;;;;;6186728;28;20041;-81
2021/05/05 06:28:08;;;;;;;1.80;1.70;;;7.70;99.90;;;;;;6171568;28;20096;-80
2021/05/05 06:31:08;;;;;;;2.88;2.25;;;7.60;99.90;;;;;;6185752;28;20038;-80
2021/05/05 06:34:09;;;;;;;2.67;2.08;;;7.80;99.90;;;;;;6170534;28;20036;-79
2021/05/05 06:37:10;;;;;;;3.08;1.77;;;7.50;99.90;;;;;;6186630;28;20026;-78
2021/05/05 06:40:11;;;;;;;3.78;2.25;;;6.90;99.90;;;;;;6170163;28;20037;-78
2021/05/05 06:43:12;;;;;;;3.85;2.45;;;7.70;99.90;;;;;;6170728;28;20061;-80
2021/05/05 06:46:13;;;;;;;3.17;2.53;;;7.70;99.90;;;;;;6202472;28;20383;-78
2021/05/05 06:49:14;;;;;;;3.47;2.90;;;7.60;99.90;;;;;;6185875;28;20088;-81
2021/05/05 06:52:14;;;;;;;3.63;2.85;;;7.60;99.90;;;;;;6185474;28;20041;-79
2021/05/05 06:55:15;;;;;;;4.68;3.05;;;7.60;99.90;;;;;;6185927;28;20080;-79
2021/05/05 06:58:18;;;;;;;4.80;2.88;;;7.70;99.90;;;;;;6169678;28;20150;-78
2021/05/05 07:01:18;;;;;;;3.65;2.58;;;7.90;99.90;;;;;;6186516;28;20120;-78
2021/05/05 07:04:19;;;;;;;3.72;2.78;;;7.70;99.90;;;;;;6169521;28;20025;-81
2021/05/05 07:07:20;;;;;;;3.13;2.40;;;8.10;99.90;;;;;;6202300;28;20089;-79
2021/05/05 07:10:20;;;;;;;4.82;2.90;;;8.20;99.90;;;;;;6185517;28;20468;-79
2021/05/05 07:13:21;;;;;;;2.60;2.40;;;8.10;99.90;;;;;;6185743;28;20117;-80
2021/05/05 07:16:22;;;;;;;3.33;2.38;;;8.20;99.90;;;;;;6202266;28;20037;-81
2021/05/05 07:19:22;;;;;;;3.17;2.55;;;8.30;99.90;;;;;;6154077;28;20034;-82
2021/05/05 07:22:23;;;;;;;3.22;2.42;;;8.50;99.90;;;;;;6185775;28;20628;-81
2021/05/05 07:25:23;;;;;;;4.68;2.65;;;9.10;99.90;;;;;;6201559;28;20473;-81
2021/05/05 07:28:24;;;;;;;3.00;2.30;;;9.80;99.90;;;;;;6185423;28;20040;-81
2021/05/05 07:31:25;;;;;;;4.20;2.38;;;10.20;99.90;;;;;;6185325;28;20095;-82
2021/05/05 07:34:26;;;;;;;5.03;2.33;;;10.80;99.90;;;;;;6185459;28;20052;-80
2021/05/05 07:41:23;;;;;;;4.88;2.58;;;12.80;99.90;;;;;;6202839;28;20033;-84
2021/05/05 07:47:36;;;;;;;4.47;2.83;;;12.60;99.90;;;;;;6169868;28;20046;-81
2021/05/05 07:50:37;;;;;;;4.50;2.45;;;12.10;99.90;;;;;;6169737;28;20100;-80
2021/05/05 07:53:38;;;;;;;4.13;2.40;;;11.20;99.90;;;;;;6168393;28;20073;-80
2021/05/05 07:56:39;;;;;;;5.78;3.30;;;11.20;99.90;;;;;;6168528;28;20029;-82
2021/05/05 07:59:40;;;;;;;10.75;3.00;;;10.60;99.90;;;;;;6201024;28;20029;-80
2021/05/05 08:02:41;;;;;;;3.83;2.90;;;10.20;99.90;;;;;;6167886;28;20030;-82
2021/05/05 08:05:41;;;;;;;4.35;2.72;;;10.00;99.90;;;;;;6168803;28;20499;-82
2021/05/05 08:08:42;;;;;;;6.13;2.80;;;9.60;99.90;;;;;;6185165;28;20030;-80
2021/05/05 08:11:44;;;;;;;10.15;3.10;;;;;;;;;;6184203;28;20633;-80
2021/05/05 08:14:46;;;;;;;6.40;2.92;;;9.30;99.90;;;;;;6183910;28;20481;-80
2021/05/05 08:17:47;;;;;;;5.18;3.95;;;9.10;99.90;;;;;;6168579;28;20033;-81
2021/05/05 08:20:47;;;;;;;9.38;2.65;;;9.00;99.90;;;;;;6186175;28;20069;-80
2021/05/05 08:23:48;;;;;;;6.68;2.60;;;8.90;99.90;;;;;;6173483;28;20457;-81
2021/05/05 08:26:49;;;;;;;8.55;3.08;;;8.90;99.90;;;;;;6173456;28;20030;-80
2021/05/05 08:29:52;;;;;;;4.47;2.80;;;9.00;99.90;;;;;;6189041;28;20121;-80
2021/05/05 08:32:53;;;;;;;;;;;9.40;99.90;;;;;;6174203;28;20045;-81
2021/05/05 08:35:53;;;;;;;6.10;2.90;;;10.30;99.90;;;;;;6204942;28;19905;-80
2021/05/05 08:38:55;;;;;;;3.95;2.70;;;10.80;99.90;;;;;;6223632;28;20048;-81
2021/05/05 08:41:57;;;;;;;5.88;2.90;;;11.10;99.90;;;;;;6205630;28;20037;-80
2021/05/05 08:44:58;;;;;;;;;;;11.30;99.90;;;;;;6204361;28;20124;-80
2021/05/05 08:48:01;;;;;;;10.27;2.80;;;11.60;98.60;;;;;;6204386;28;19922;-81
2021/05/05 08:51:03;;;;;;;6.60;2.53;;;12.30;99.90;;;;;;6189230;28;20370;-83
2021/05/05 08:54:05;;;;;;;6.65;3.00;;;12.90;98.60;;;;;;6172904;28;20034;-80
2021/05/05 08:57:06;;;;;;;6.45;3.20;;;12.50;95.30;;;;;;6223036;28;20034;-80
2021/05/05 09:00:08;;;;;;;5.72;2.80;;;12.50;95.10;;;;;;6188845;28;20475;-80
2021/05/05 09:03:09;;;;;;;9.60;2.97;;;12.80;93.80;;;;;;6172264;28;20037;-80
2021/05/05 09:06:09;;;;;;;5.35;2.45;;;13.50;91.10;;;;;;6188705;28;20045;-81
2021/05/05 09:09:11;;;;;;;5.22;2.45;;;14.50;91.30;;;;;;6188773;28;20026;-82
2021/05/05 09:12:22;;;;;;;5.13;2.65;;;13.60;87.70;;;;;;6187969;28;20054;-83
2021/05/05 09:15:28;;;;;;;5.10;2.60;;;14.10;99.40;;;;;;6172413;28;20042;-80
2021/05/05 09:18:29;;;;;;;5.43;2.50;;;14.20;96.60;;;;;;6189095;28;20124;-80
2021/05/05 09:21:32;;;;;;;4.20;2.30;;;14.20;95.60;;;;;;6205223;28;20724;-83
2021/05/05 09:24:34;;;;;;;5.25;2.58;;;13.50;88.70;;;;;;6205265;28;20060;-84
2021/05/05 09:27:35;;;;;;;3.92;2.22;;;13.40;89.70;;;;;;6204920;28;20566;-82
2021/05/05 09:30:36;;;;;;;12.45;3.28;;;13.50;91.10;;;;;;6204133;28;20038;-81
2021/05/05 09:33:39;;;;;;;6.00;3.00;;;14.10;90.80;;;;;;6170923;28;20065;-81
2021/05/05 09:36:40;;;;;;;;;;;14.90;91.80;;;;;;6172396;28;20034;-83
2021/05/05 09:39:41;;;;;;;3.50;2.30;;;15.00;72.70;;;;;;6204280;28;19917;-83
2021/05/05 09:42:45;;;;;;;6.32;2.47;;;16.20;64.00;;;;;;6171028;28;20033;-81
2021/05/05 09:45:45;;;;;;;4.72;2.45;;;16.40;79.20;;;;;;6188129;28;20121;-79
2021/05/05 09:48:46;;;;;;;10.27;2.90;;;15.90;81.40;;;;;;6187439;28;20042;-79
2021/05/05 09:51:49;;;;;;;4.95;2.50;;;15.80;65.00;;;;;;6187663;28;20503;-79
2021/05/05 09:54:59;;;;;;;5.43;2.58;;;15.30;63.70;;;;;;6187332;28;20153;-80
2021/05/05 09:58:00;;;;;;;6.25;2.40;;;14.70;59.20;;;;;;6187162;28;20080;-82
2021/05/05 10:01:04;;;;;;;4.63;2.47;;;13.80;63.70;;;;;;6186541;28;20575;-81
2021/05/05 10:04:04;;;;;;;8.00;2.97;;;13.30;65.80;;;;;;6220719;28;20034;-80
2021/05/05 10:07:05;;;;;;;5.40;2.30;;;;;;;;;;6203367;28;20032;-80
2021/05/05 10:10:06;;;;;;;5.50;2.53;;;12.60;87.10;;;;;;6220671;28;20026;-79
2021/05/05 10:13:08;;;;;;;3.30;2.40;;;13.90;94.10;;;;;;6186959;28;20041;-83
2021/05/05 10:16:08;;;;;;;3.93;2.37;;;14.50;93.50;;;;;;6170308;28;20034;-81
2021/05/05 10:19:12;;;;;;;5.65;2.30;;;15.70;92.70;;;;;;6202868;28;20041;-81
2021/05/05 10:22:13;;;;;;;3.83;2.40;;;16.30;90.60;;;;;;6220427;28;20042;-81
2021/05/05 10:25:14;;;;;;;4.40;2.65;;;16.00;77.50;;;;;;6166443;28;20026;-79
2021/05/05 10:28:15;;;;;;;6.28;3.47;;;;;;;;;;6186257;28;20176;-84
2021/05/05 10:31:19;;;;;;;5.00;2.85;;;;;;;;;;6202892;28;20026;-81
2021/05/05 10:34:28;;;;;;;5.07;2.55;;;14.00;90.60;;;;;;6186683;28;20033;-81
2021/05/05 10:37:59;;;;;;;5.10;2.53;;;14.20;91.10;;;;;;6203588;28;20022;-81
2021/05/05 10:41:10;;;;;;;4.78;2.60;;;14.30;90.10;;;;;;6188850;28;20030;-83
2021/05/05 10:44:11;;;;;;;5.05;2.50;;;;;;;;;;6186023;28;20049;-80
2021/05/05 10:47:30;;;;;;;4.55;2.35;;;14.50;78.40;;;;;;6201363;28;20040;-81
2021/05/05 10:50:50;;;;;;;6.07;3.28;;;14.00;89.00;;;;;;6220017;28;20042;-81
2021/05/05 10:53:51;;;;;;;6.32;3.25;;;;;;;;;;6203270;28;20037;-82
2021/05/05 10:57:08;;;;;;;4.50;2.55;;;14.40;91.40;;;;;;6201721;28;20036;-80
2021/05/05 11:00:13;;;;;;;4.28;2.35;;;14.40;90.40;;;;;;6185420;28;20473;-82
2021/05/05 11:03:15;;;;;;;5.97;2.53;;;14.40;74.80;;;;;;6186002;28;20076;-81
2021/05/05 11:06:32;;;;;;;4.75;2.38;;;14.30;74.70;;;;;;6184808;28;20032;-82
2021/05/05 11:09:40;;;;;;;5.68;2.30;;;14.10;77.90;;;;;;6200506;28;20494;-81
2021/05/05 11:12:41;;;;;;;3.85;1.90;;;14.90;86.60;;;;;;6217246;28;20125;-80
2021/05/05 11:15:42;;;;;;;4.60;2.13;;;;;;;;;;6202087;28;20022;-79
2021/05/05 11:18:45;;;;;;;5.38;2.58;;;;;;;;;;6219683;28;20034;-81
2021/05/05 11:21:45;;;;;;;;;;;14.60;71.00;;;;;;6219299;28;20022;-80
2021/05/05 11:24:46;;;;;;;5.05;2.70;;;;;;;;;;6199017;28;19912;-80
2021/05/05 11:27:49;;;;;;;3.83;2.60;;;14.30;73.40;;;;;;6182992;28;20061;-84
2021/05/05 11:30:50;;;;;;;5.45;2.47;;;14.70;78.80;;;;;;6184016;28;20057;-83
2021/05/05 11:33:58;;;;;;;10.15;2.40;;;14.70;62.10;;;;;;6179909;28;20040;-80
2021/05/05 11:36:59;;;;;;;4.82;2.25;;;15.40;68.70;;;;;;6181296;28;20030;-80
2021/05/05 11:40:01;;;;;;;4.28;2.28;;;15.60;56.30;;;;;;6218048;28;20030;-80
2021/05/05 11:43:15;;;;;;;5.30;2.40;;;15.00;59.00;;;;;;6200808;28;20022;-81
2021/05/05 11:46:16;;;;;;;3.60;2.08;;;14.20;60.20;;;;;;6201571;28;20026;-79
2021/05/05 11:49:33;;;;;;;3.55;2.15;;;13.40;79.10;;;;;;6184927;28;20416;-80
2021/05/05 11:52:35;;;;;;;7.78;2.97;;;13.10;62.50;;;;;;6200530;28;20045;-80
2021/05/05 11:55:36;;;;;;;;;;;13.20;63.90;;;;;;6200011;28;20026;-81
2021/05/05 11:58:36;;;;;;;6.05;2.35;;;13.50;80.00;;;;;;6215198;28;19942;-81
2021/05/05 12:01:38;;;;;;;4.55;2.30;;;13.50;63.10;;;;;;6184358;28;20032;-80
2021/05/05 12:04:40;;;;;;;3.57;2.27;;;13.80;62.00;;;;;;6184379;28;20124;-82
2021/05/05 12:07:41;;;;;;;4.72;2.20;;;14.00;62.20;;;;;;6173805;28;20479;-81
2021/05/05 12:10:46;;;;;;;3.70;1.85;;;13.90;61.40;;;;;;6184764;28;20049;-81
2021/05/05 12:13:47;;;;;;;7.07;2.75;;;13.40;62.20;;;;;;6184792;28;20510;-81
2021/05/05 12:16:47;;;;;;;8.55;3.90;;;14.00;83.40;;;;;;6168485;28;20089;-79
2021/05/05 12:20:05;;;;;;;5.40;2.58;;;13.60;88.80;;;;;;6200590;28;20029;-81
2021/05/05 12:23:06;;;;;;;4.03;2.35;;;12.90;83.40;;;;;;6185590;28;20034;-82
2021/05/05 12:26:25;;;;;;;5.30;2.47;;;12.40;92.40;;;;;;6184774;28;20041;-81
2021/05/05 12:29:25;;;;;;;6.68;2.75;;;12.70;94.00;;;;;;6200768;28;20053;-81
2021/05/05 12:32:45;;;;;;;5.10;2.60;;;12.90;70.00;;;;;;6168315;28;20042;-81
2021/05/05 12:35:46;;;;;;;4.10;2.20;;;12.90;71.70;;;;;;6200600;28;20369;-85
2021/05/05 12:38:53;;;;;;;4.93;2.20;;;13.20;96.30;;;;;;6184613;28;20104;-81
2021/05/05 12:41:53;;;;;;;6.10;2.40;;;13.40;94.50;;;;;;6201050;28;20472;-82
2021/05/05 12:44:54;;;;;;;5.70;2.80;;;13.30;83.70;;;;;;6184542;28;20029;-83
2021/05/05 12:47:59;;;;;;;5.72;2.20;;;13.00;70.60;;;;;;6167958;28;20046;-82
2021/05/05 12:51:10;;;;;;;4.57;1.95;;;12.30;90.10;;;;;;6184342;28;20045;-81
2021/05/05 12:54:19;;;;;;;5.22;2.53;;;11.80;97.20;;;;;;6184497;28;20029;-85
2021/05/05 12:57:21;;;;;;;4.75;2.22;;;11.80;98.30;;;;;;6193558;28;20546;-82
2021/05/05 13:00:22;;;;;;;3.58;1.92;;;12.30;99.90;;;;;;6201541;28;20488;-82
2021/05/05 13:03:24;;;;;;;6.75;2.13;;;12.30;98.20;;;;;;6167583;28;20061;-80
2021/05/05 13:06:39;;;;;;;2.88;2.20;;;12.30;92.80;;;;;;6201197;28;20025;-83
2021/05/05 13:09:39;;;;;;;4.00;1.90;;;12.50;99.90;;;;;;6204685;28;20461;-82
2021/05/05 13:12:53;;;;;;;3.60;2.10;;;12.90;99.90;;;;;;6172496;28;20077;-82
2021/05/05 13:32:38;;;;;;;3.63;2.05;;;12.70;90.00;;;;;;6206337;28;20077;-83
2021/05/05 13:35:42;;;;;;;3.15;2.45;;;12.00;91.00;;;;;;6204664;28;20033;-82
2021/05/05 13:38:42;;;;;;;5.22;2.22;;;11.60;91.60;;;;;;6171909;28;20393;-81
2021/05/05 13:41:44;;;;;;;8.57;3.90;;;11.40;93.50;;;;;;6187781;28;20049;-82
2021/05/05 13:44:54;;;;;;;7.07;2.05;;;11.30;93.50;;;;;;6187242;28;20093;-84
2021/05/05 13:48:12;;;;;;;3.40;2.67;;;11.20;92.90;;;;;;6174097;28;20128;-84
2021/05/05 13:51:18;;;;;;;5.43;2.47;;;11.40;91.80;;;;;;6192403;28;20042;-81
2021/05/05 13:54:19;;;;;;;7.53;2.17;;;11.70;90.80;;;;;;6203593;28;20042;-83
2021/05/05 13:57:19;;;;;;;5.05;2.60;;;12.10;91.70;;;;;;6187687;28;20036;-81
2021/05/05 14:00:20;;;;;;;3.47;1.90;;;13.00;91.90;;;;;;6171068;28;20582;-83
2021/05/05 14:03:21;;;;;;;3.95;2.13;;;13.30;90.10;;;;;;6186902;28;20563;-85
2021/05/05 14:06:23;;;;;;;4.93;2.08;;;13.40;91.00;;;;;;6187830;28;20033;-84
2021/05/05 14:09:25;;;;;;;3.40;2.30;;;13.50;90.30;;;;;;6187196;28;20026;-83
2021/05/05 14:12:25;;;;;;;4.23;2.20;;;13.80;90.70;;;;;;6188175;28;20041;-81
2021/05/05 14:15:32;;;;;;;1.95;1.77;;;;;;;;;;6187265;28;20283;-83
2021/05/05 14:18:33;;;;;;;2.95;1.98;;;13.60;87.00;;;;;;6187286;28;20120;-82
2021/05/05 14:21:33;;;;;;;2.53;2.00;;;13.40;89.90;;;;;;6187372;28;20033;-84
2021/05/05 14:24:34;;;;;;;4.45;2.70;;;12.80;91.50;;;;;;6186625;28;20551;-82
2021/05/05 14:27:35;;;;;;;4.32;2.30;;;12.50;91.80;;;;;;6170514;28;20480;-82
2021/05/05 14:30:36;;;;;;;5.18;2.22;;;12.20;92.30;;;;;;6170232;28;20097;-82
2021/05/05 14:33:37;;;;;;;4.25;2.15;;;11.70;98.50;;;;;;6183043;28;20040;-82
2021/05/05 14:36:37;;;;;;;5.60;2.28;;;11.20;98.70;;;;;;6185082;28;20026;-84
2021/05/05 14:39:38;;;;;;;6.13;2.10;;;11.80;91.80;;;;;;6185568;28;20049;-81
2021/05/05 14:42:49;;;;;;;2.10;1.90;;;11.40;91.00;;;;;;6202692;28;20049;-82
2021/05/05 14:48:56;;;;;;;4.70;2.17;;;11.20;84.50;;;;;;6186892;28;20428;-83
2021/05/05 14:51:57;;;;;;;5.32;2.20;;;11.30;90.40;;;;;;6184964;28;20129;-82
2021/05/05 14:54:57;;;;;;;4.47;2.30;;;11.30;90.10;;;;;;6170298;28;20084;-83
2021/05/05 14:58:09;;;;;;;2.28;1.80;;;11.60;91.10;;;;;;6186585;28;20586;-83
2021/05/05 15:01:16;;;;;;;3.75;1.95;;;12.00;89.70;;;;;;6187545;28;20396;-82
2021/05/05 15:04:50;;;;;;;2.38;1.80;;;12.40;96.40;;;;;;6185329;28;20037;-82
2021/05/05 15:07:55;;;;;;;2.78;1.90;;;;;;;;;;6184421;28;20030;-82
2021/05/05 15:14:10;;;;;;;5.03;2.35;;;11.90;94.20;;;;;;6186357;28;20038;-82
2021/05/05 15:27:59;;;;;;;4.47;2.50;;;11.80;89.30;;;;;;6202873;28;20018;-82
2021/05/05 15:37:27;;;;;;;6.80;3.10;;;9.30;99.90;;;;;;6108837;29;20099;-83
2021/05/05 15:46:54;;;;;;;3.38;2.30;;;8.50;99.90;;;;;;6103550;29;20032;-82
2021/05/05 15:50:03;;;;;;;4.97;2.72;;;;;;;;;;6087104;29;20051;-83
2021/05/05 15:56:13;;;;;;;5.60;2.60;;;8.70;99.90;;;;;;6103237;29;20035;-82
2021/05/05 15:59:18;;;;;;;5.88;3.38;;;8.90;99.90;;;;;;6087034;29;20171;-82
2021/05/05 16:12:37;;;;;;;5.18;3.10;;;;;;;;;;6204124;28;20099;-82
2021/05/05 16:15:39;;;;;;;5.90;3.53;;;8.60;99.90;;;;;;6166842;28;20182;-81
2021/05/05 16:18:48;;;;;;;4.20;3.28;;;8.30;99.90;;;;;;6179904;28;20477;-83
2021/05/05 16:21:57;;;;;;;3.50;2.20;;;8.40;99.90;;;;;;6155787;28;20109;-82
2021/05/05 16:25:21;;;;;;;3.97;2.80;;;8.50;99.90;;;;;;6159291;28;20034;-80
2021/05/05 16:48:20;;;;;;;5.70;2.67;;;9.00;99.90;;;;;;6123320;29;20134;-84
2021/05/05 16:52:21;;;;;;;6.15;2.63;;;8.70;99.90;;;;;;6106760;29;20058;-82
2021/05/05 16:54:54;;;;;;;4.95;2.42;;;8.60;99.90;;;;;;6137310;29;20577;-82
2021/05/05 16:58:08;;;;;;;4.57;2.50;;;8.60;99.90;;;;;;6124139;29;20042;-81
2021/05/05 17:07:56;;;;;;;2.45;2.00;;;8.50;99.90;;;;;;6129300;29;20040;-82
2021/05/05 17:10:56;;;;;;;4.20;2.30;;;8.60;99.90;;;;;;6097574;29;20139;-83
2021/05/05 17:13:57;;;;;;;3.47;2.60;;;8.50;99.90;;;;;;6130842;28;20035;-83
2021/05/05 17:17:03;;;;;;;4.05;2.63;;;9.00;99.90;;;;;;6188009;28;20372;-85
2021/05/05 17:23:35;;;;;;;4.57;2.80;;;8.80;99.90;;;;;;6165451;28;20545;-83
2021/05/05 17:26:49;;;;;;;4.03;2.40;;;8.50;99.90;;;;;;6205323;28;20428;-83
2021/05/05 17:43:24;;;;;;;6.68;3.10;;;8.70;99.90;;;;;;6192966;28;20456;-83
2021/05/05 18:16:05;;;;;;;4.65;2.63;;;8.30;99.90;;;;;;6185994;28;20758;-84
2021/05/05 18:19:09;;;;;;;4.85;2.97;;;8.50;99.90;;;;;;6206608;28;20081;-82
2021/05/05 18:22:18;;;;;;;5.32;2.65;;;8.50;99.90;;;;;;6188417;28;20034;-82
2021/05/05 18:28:46;;;;;;;5.32;3.65;;;8.60;99.90;;;;;;6220870;28;20034;-82
2021/05/05 18:31:47;;;;;;;3.72;2.60;;;8.70;99.90;;;;;;6189252;28;20061;-81
2021/05/05 18:34:47;;;;;;;4.35;2.40;;;8.60;99.90;;;;;;6185351;28;20030;-81